createdAt,value
2018-08-10T00:00:00.791Z,26.04
2018-08-10T00:01:00.849Z,26.00
2018-08-10T00:02:01.173Z,25.91
2018-08-10T00:03:00.844Z,25.91
2018-08-10T00:04:00.921Z,25.93
2018-08-10T00:05:01.489Z,25.93
2018-08-10T00:06:00.949Z,25.96
2018-08-10T00:07:01.024Z,25.91
2018-08-10T00:08:01.054Z,25.94
2018-08-10T00:09:01.340Z,25.93
2018-08-10T00:10:01.084Z,25.96
2018-08-10T00:11:01.104Z,25.86
2018-08-10T00:12:01.136Z,25.93
2018-08-10T00:13:01.220Z,25.89
2018-08-10T00:14:01.246Z,25.94
2018-08-10T00:15:01.240Z,25.91
2018-08-10T00:16:01.323Z,25.91
2018-08-10T00:17:01.345Z,25.91
2018-08-10T00:18:01.336Z,25.93
2018-08-10T00:19:01.364Z,25.97
2018-08-10T00:20:01.445Z,25.94
2018-08-10T00:21:01.477Z,25.96
2018-08-10T00:22:01.759Z,25.96
2018-08-10T00:23:01.496Z,25.94
2018-08-10T00:24:01.576Z,25.83
2018-08-10T00:25:01.566Z,25.93
2018-08-10T00:26:01.642Z,25.82
2018-08-10T00:27:01.626Z,25.85
2018-08-10T00:28:01.713Z,25.89
2018-08-10T00:29:01.714Z,25.94
2018-08-10T00:30:01.729Z,25.96
2018-08-10T00:31:01.761Z,25.93
2018-08-10T00:32:01.794Z,25.83
2018-08-10T00:33:01.826Z,25.94
2018-08-10T00:34:01.855Z,26.00
2018-08-10T00:35:02.192Z,25.94
2018-08-10T00:36:01.978Z,25.97
2018-08-10T00:37:01.961Z,25.90
2018-08-10T00:38:01.986Z,25.81
2018-08-10T00:39:02.075Z,25.81
2018-08-10T00:40:02.106Z,25.79
2018-08-10T00:41:02.399Z,25.83
2018-08-10T00:42:02.125Z,25.79
2018-08-10T00:43:02.154Z,25.79
2018-08-10T00:44:02.235Z,25.79
2018-08-10T00:45:02.265Z,25.75
2018-08-10T00:46:02.252Z,25.64
2018-08-10T00:47:02.341Z,25.75
2018-08-10T00:48:02.371Z,25.66
2018-08-10T00:49:02.356Z,25.66
2018-08-10T00:50:02.429Z,25.66
2018-08-10T00:51:02.415Z,25.69
2018-08-10T00:52:02.449Z,25.67
2018-08-10T00:53:02.780Z,25.69
2018-08-10T00:54:02.563Z,25.66
2018-08-10T00:55:02.547Z,25.66
2018-08-10T00:56:02.634Z,25.69
2018-08-10T00:57:02.616Z,25.66
2018-08-10T00:58:02.654Z,25.69
2018-08-10T00:59:02.726Z,25.63
2018-08-10T01:00:03.012Z,25.69
2018-08-10T01:01:02.743Z,25.64
2018-08-10T01:02:02.773Z,25.63
2018-08-10T01:03:02.802Z,25.66
2018-08-10T01:04:02.840Z,25.63
2018-08-10T01:05:02.922Z,25.69
2018-08-10T01:06:02.915Z,25.67
2018-08-10T01:07:03.241Z,25.60
2018-08-10T01:08:03.022Z,25.64
2018-08-10T01:09:03.012Z,25.64
2018-08-10T01:10:03.182Z,25.69
2018-08-10T01:11:03.073Z,25.61
2018-08-10T01:12:03.154Z,25.54
2018-08-10T01:13:03.135Z,25.56
2018-08-10T01:14:03.466Z,25.53
2018-08-10T01:15:03.261Z,25.49
2018-08-10T01:16:03.285Z,25.45
2018-08-10T01:17:03.266Z,25.45
2018-08-10T01:18:03.344Z,25.44
2018-08-10T01:19:03.366Z,25.48
2018-08-10T01:20:03.364Z,25.39
2018-08-10T01:21:03.757Z,25.41
2018-08-10T01:22:03.423Z,25.39
2018-08-10T01:23:03.455Z,25.38
2018-08-10T01:24:03.546Z,25.30
2018-08-10T01:25:03.525Z,25.48
2018-08-10T01:26:03.604Z,25.31
2018-08-10T01:27:03.591Z,25.39
2018-08-10T01:28:03.917Z,25.41
2018-08-10T01:29:03.693Z,25.35
2018-08-10T01:30:03.689Z,25.36
2018-08-10T01:31:04.141Z,25.36
2018-08-10T01:32:03.803Z,25.35
2018-08-10T01:33:03.782Z,25.38
2018-08-10T01:34:03.816Z,25.39
2018-08-10T01:35:04.145Z,25.36
2018-08-10T01:36:03.928Z,25.34
2018-08-10T01:37:03.966Z,25.42
2018-08-10T01:38:03.943Z,25.46
2018-08-10T01:39:03.988Z,25.46
2018-08-10T01:40:04.062Z,25.41
2018-08-10T01:41:04.091Z,25.38
2018-08-10T01:42:04.128Z,25.41
2018-08-10T01:43:04.112Z,25.38
2018-08-10T01:44:04.188Z,25.42
2018-08-10T01:45:04.172Z,25.39
2018-08-10T01:46:04.258Z,25.48
2018-08-10T01:47:04.235Z,25.45
2018-08-10T01:48:04.577Z,25.46
2018-08-10T01:49:04.305Z,25.42
2018-08-10T01:50:04.332Z,25.45
2018-08-10T01:51:04.420Z,25.45
2018-08-10T01:52:04.451Z,25.49
2018-08-10T01:53:04.434Z,25.51
2018-08-10T01:54:04.770Z,25.48
2018-08-10T01:55:04.492Z,25.46
2018-08-10T01:56:04.589Z,25.45
2018-08-10T01:57:04.617Z,25.51
2018-08-10T01:58:04.656Z,25.49
2018-08-10T01:59:04.638Z,25.51
2018-08-10T02:00:04.962Z,25.45
2018-08-10T02:01:04.742Z,25.51
2018-08-10T02:02:04.727Z,25.46
2018-08-10T02:03:04.807Z,25.42
2018-08-10T02:04:04.852Z,25.46
2018-08-10T02:05:04.818Z,25.44
2018-08-10T02:06:05.160Z,25.46
2018-08-10T02:07:04.896Z,25.42
2018-08-10T02:08:04.919Z,25.39
2018-08-10T02:09:04.953Z,25.46
2018-08-10T02:10:04.994Z,25.41
2018-08-10T02:11:05.068Z,25.41
2018-08-10T02:12:05.154Z,25.48
2018-08-10T02:13:05.131Z,25.46
2018-08-10T02:14:05.162Z,25.45
2018-08-10T02:15:05.146Z,25.42
2018-08-10T02:16:05.226Z,25.44
2018-08-10T02:17:05.257Z,25.54
2018-08-10T02:18:05.303Z,25.54
2018-08-10T02:19:05.630Z,25.54
2018-08-10T02:20:05.362Z,25.48
2018-08-10T02:21:05.390Z,25.45
2018-08-10T02:22:05.374Z,25.49
2018-08-10T02:23:05.407Z,25.45
2018-08-10T02:24:05.492Z,25.48
2018-08-10T02:25:05.683Z,25.46
2018-08-10T02:26:05.849Z,25.46
2018-08-10T02:27:05.536Z,25.45
2018-08-10T02:28:05.621Z,25.46
2018-08-10T02:29:05.761Z,25.54
2018-08-10T02:30:05.636Z,25.45
2018-08-10T02:31:05.662Z,25.46
2018-08-10T02:32:05.749Z,25.49
2018-08-10T02:33:06.034Z,25.54
2018-08-10T02:34:05.815Z,25.44
2018-08-10T02:35:05.845Z,25.42
2018-08-10T02:36:05.875Z,25.39
2018-08-10T02:37:05.920Z,25.46
2018-08-10T02:38:05.891Z,25.42
2018-08-10T02:39:05.932Z,25.44
2018-08-10T02:40:06.259Z,25.41
2018-08-10T02:41:06.040Z,25.42
2018-08-10T02:42:06.084Z,25.51
2018-08-10T02:43:06.073Z,25.46
2018-08-10T02:44:06.140Z,25.44
2018-08-10T02:45:06.176Z,25.42
2018-08-10T02:46:06.156Z,25.41
2018-08-10T02:47:06.487Z,25.46
2018-08-10T02:48:06.213Z,25.44
2018-08-10T02:49:06.248Z,25.44
2018-08-10T02:50:06.333Z,25.31
2018-08-10T02:51:06.417Z,25.41
2018-08-10T02:52:06.402Z,25.45
2018-08-10T02:53:06.432Z,25.39
2018-08-10T02:54:06.709Z,25.45
2018-08-10T02:55:06.545Z,25.41
2018-08-10T02:56:06.484Z,25.39
2018-08-10T02:57:06.511Z,25.44
2018-08-10T02:58:06.603Z,25.46
2018-08-10T02:59:06.677Z,25.41
2018-08-10T03:00:06.954Z,25.42
2018-08-10T03:01:06.656Z,25.36
2018-08-10T03:02:06.725Z,25.42
2018-08-10T03:03:06.701Z,25.31
2018-08-10T03:04:06.789Z,25.41
2018-08-10T03:06:06.796Z,25.31
2018-08-10T03:09:07.195Z,25.45
2018-08-10T03:10:07.034Z,25.44
2018-08-10T03:11:06.960Z,25.34
2018-08-10T03:12:07.044Z,25.45
2018-08-10T03:13:07.078Z,25.42
2018-08-10T03:14:07.064Z,25.42
2018-08-10T03:15:07.094Z,25.39
2018-08-10T03:16:07.432Z,25.44
2018-08-10T03:17:07.158Z,25.44
2018-08-10T03:18:07.250Z,25.48
2018-08-10T03:19:07.221Z,25.35
2018-08-10T03:20:07.309Z,25.42
2018-08-10T03:21:07.341Z,25.35
2018-08-10T03:22:07.389Z,25.34
2018-08-10T03:23:07.657Z,25.36
2018-08-10T03:24:07.403Z,25.36
2018-08-10T03:25:07.499Z,25.29
2018-08-10T03:26:07.453Z,25.35
2018-08-10T03:27:07.490Z,25.45
2018-08-10T03:28:07.565Z,25.39
2018-08-10T03:29:07.846Z,25.41
2018-08-10T03:30:07.580Z,25.35
2018-08-10T03:31:07.615Z,25.31
2018-08-10T03:32:07.645Z,25.34
2018-08-10T03:33:07.685Z,25.46
2018-08-10T03:34:07.759Z,25.36
2018-08-10T03:35:08.035Z,25.31
2018-08-10T03:36:07.773Z,25.35
2018-08-10T03:37:07.806Z,25.38
2018-08-10T03:38:07.895Z,25.39
2018-08-10T03:39:07.870Z,25.39
2018-08-10T03:40:07.961Z,25.38
2018-08-10T03:41:08.236Z,25.38
2018-08-10T03:42:08.023Z,25.45
2018-08-10T03:43:08.102Z,25.31
2018-08-10T03:44:08.082Z,25.35
2018-08-10T03:45:08.064Z,25.36
2018-08-10T03:46:08.093Z,25.30
2018-08-10T03:47:08.124Z,25.31
2018-08-10T03:48:08.165Z,25.38
2018-08-10T03:49:08.237Z,25.34
2018-08-10T03:50:08.222Z,25.36
2018-08-10T03:51:08.258Z,25.36
2018-08-10T03:52:08.335Z,25.31
2018-08-10T03:53:08.319Z,25.44
2018-08-10T03:54:08.657Z,25.44
2018-08-10T03:55:08.391Z,25.39
2018-08-10T03:56:08.469Z,25.36
2018-08-10T03:57:08.452Z,25.39
2018-08-10T03:58:08.486Z,25.31
2018-08-10T03:59:08.568Z,25.36
2018-08-10T04:00:08.550Z,25.38
2018-08-10T04:01:08.883Z,25.42
2018-08-10T04:02:08.608Z,25.51
2018-08-10T04:03:08.639Z,25.45
2018-08-10T04:04:08.736Z,25.44
2018-08-10T04:05:08.763Z,25.46
2018-08-10T04:06:08.743Z,25.45
2018-08-10T04:07:08.772Z,25.44
2018-08-10T04:08:08.862Z,25.44
2018-08-10T04:09:08.835Z,25.46
2018-08-10T04:10:08.927Z,25.45
2018-08-10T04:11:08.910Z,25.42
2018-08-10T04:12:08.948Z,25.42
2018-08-10T04:13:08.981Z,25.44
2018-08-10T04:14:09.308Z,25.42
2018-08-10T04:15:09.083Z,25.41
2018-08-10T04:16:09.117Z,25.41
2018-08-10T04:17:09.096Z,25.45
2018-08-10T04:18:09.130Z,25.45
2018-08-10T04:19:09.158Z,25.48
2018-08-10T04:20:09.496Z,25.44
2018-08-10T04:21:09.277Z,25.44
2018-08-10T04:22:09.264Z,25.44
2018-08-10T04:23:09.289Z,25.42
2018-08-10T04:24:09.382Z,25.46
2018-08-10T04:25:09.353Z,25.45
2018-08-10T04:26:09.434Z,25.44
2018-08-10T04:27:09.424Z,25.48
2018-08-10T04:28:09.504Z,25.39
2018-08-10T04:29:09.490Z,25.42
2018-08-10T04:30:09.574Z,25.41
2018-08-10T04:31:09.552Z,25.44
2018-08-10T04:32:09.880Z,25.36
2018-08-10T04:33:09.665Z,25.42
2018-08-10T04:34:09.645Z,25.35
2018-08-10T04:35:09.684Z,25.39
2018-08-10T04:36:09.771Z,25.36
2018-08-10T04:37:09.803Z,25.35
2018-08-10T04:38:09.778Z,25.39
2018-08-10T04:39:10.104Z,25.46
2018-08-10T04:40:09.889Z,25.34
2018-08-10T04:41:09.873Z,25.46
2018-08-10T04:42:09.959Z,25.44
2018-08-10T04:43:09.941Z,25.44
2018-08-10T04:44:09.968Z,25.44
2018-08-10T04:45:10.170Z,25.41
2018-08-10T04:46:10.546Z,25.34
2018-08-10T04:47:10.074Z,25.38
2018-08-10T04:48:10.206Z,25.39
2018-08-10T04:49:10.190Z,25.46
2018-08-10T04:50:10.160Z,25.49
2018-08-10T04:51:10.199Z,25.45
2018-08-10T04:52:10.300Z,25.42
2018-08-10T04:53:10.561Z,25.45
2018-08-10T04:54:10.350Z,25.45
2018-08-10T04:55:10.391Z,25.41
2018-08-10T04:56:10.466Z,25.45
2018-08-10T04:57:10.388Z,25.46
2018-08-10T04:58:10.480Z,25.44
2018-08-10T04:59:10.464Z,25.48
2018-08-10T05:00:10.786Z,25.46
2018-08-10T05:01:10.518Z,25.46
2018-08-10T05:02:10.557Z,25.42
2018-08-10T05:03:10.632Z,25.44
2018-08-10T05:04:10.679Z,25.53
2018-08-10T05:05:10.711Z,25.46
2018-08-10T05:06:10.686Z,25.57
2018-08-10T05:07:10.719Z,25.49
2018-08-10T05:08:10.802Z,25.49
2018-08-10T05:09:10.784Z,25.46
2018-08-10T05:10:10.860Z,25.49
2018-08-10T05:11:10.897Z,25.51
2018-08-10T05:12:10.927Z,25.53
2018-08-10T05:13:10.927Z,25.51
2018-08-10T05:14:10.967Z,25.51
2018-08-10T05:15:10.979Z,25.51
2018-08-10T05:16:11.014Z,25.51
2018-08-10T05:17:11.096Z,25.53
2018-08-10T05:18:11.075Z,25.54
2018-08-10T05:19:11.417Z,25.56
2018-08-10T05:20:11.132Z,25.51
2018-08-10T05:21:11.173Z,25.57
2018-08-10T05:22:11.256Z,25.53
2018-08-10T05:23:11.241Z,25.54
2018-08-10T05:24:11.317Z,25.60
2018-08-10T05:25:11.601Z,25.59
2018-08-10T05:26:11.335Z,25.57
2018-08-10T05:27:11.416Z,25.60
2018-08-10T05:28:11.446Z,25.60
2018-08-10T05:29:11.427Z,25.60
2018-08-10T05:30:11.465Z,25.60
2018-08-10T05:31:11.495Z,25.64
2018-08-10T05:32:11.528Z,25.60
2018-08-10T05:33:11.612Z,25.66
2018-08-10T05:34:11.594Z,25.64
2018-08-10T05:35:11.621Z,25.69
2018-08-10T05:36:11.717Z,25.66
2018-08-10T05:37:11.986Z,25.64
2018-08-10T05:38:11.728Z,25.71
2018-08-10T05:39:11.755Z,25.79
2018-08-10T05:40:11.846Z,25.81
2018-08-10T05:41:11.822Z,25.75
2018-08-10T05:42:11.849Z,25.78
2018-08-10T05:43:11.936Z,25.86
2018-08-10T05:44:11.970Z,25.85
2018-08-10T05:45:11.949Z,25.81
2018-08-10T05:46:11.979Z,25.85
2018-08-10T05:47:12.072Z,25.79
2018-08-10T05:48:12.096Z,25.90
2018-08-10T05:49:12.148Z,25.93
2018-08-10T05:50:12.408Z,25.91
2018-08-10T05:51:12.140Z,25.94
2018-08-10T05:52:12.231Z,25.96
2018-08-10T05:53:12.260Z,25.89
2018-08-10T05:54:12.391Z,25.98
2018-08-10T05:55:12.277Z,26.01
2018-08-10T05:56:12.310Z,26.09
2018-08-10T05:57:12.640Z,26.01
2018-08-10T05:58:12.367Z,26.01
2018-08-10T05:59:12.453Z,26.00
2018-08-10T06:00:12.485Z,26.00
2018-08-10T06:01:12.474Z,25.98
2018-08-10T06:02:12.601Z,26.08
2018-08-10T06:03:12.569Z,26.03
2018-08-10T06:04:12.870Z,26.03
2018-08-10T06:05:12.663Z,26.09
2018-08-10T06:06:12.632Z,25.98
2018-08-10T06:07:12.664Z,26.03
2018-08-10T06:08:12.747Z,26.13
2018-08-10T06:09:12.774Z,26.13
2018-08-10T06:10:12.813Z,26.09
2018-08-10T06:11:13.093Z,26.12
2018-08-10T06:12:12.875Z,26.17
2018-08-10T06:13:12.959Z,26.09
2018-08-10T06:14:12.900Z,26.11
2018-08-10T06:15:12.987Z,26.20
2018-08-10T06:17:12.989Z,26.21
2018-08-10T06:18:13.320Z,26.20
2018-08-10T06:19:13.106Z,26.21
2018-08-10T06:20:13.141Z,26.17
2018-08-10T06:21:13.170Z,26.19
2018-08-10T06:22:13.209Z,26.17
2018-08-10T06:23:13.181Z,26.17
2018-08-10T06:24:13.288Z,26.21
2018-08-10T06:25:13.566Z,26.23
2018-08-10T06:26:13.339Z,26.21
2018-08-10T06:27:13.313Z,26.17
2018-08-10T06:28:13.353Z,26.24
2018-08-10T06:29:13.382Z,26.28
2018-08-10T06:30:13.467Z,26.27
2018-08-10T06:31:13.452Z,26.24
2018-08-10T06:32:13.529Z,26.23
2018-08-10T06:33:13.557Z,26.21
2018-08-10T06:34:13.628Z,26.24
2018-08-10T06:35:13.628Z,26.31
2018-08-10T06:36:13.666Z,26.17
2018-08-10T06:37:13.647Z,26.21
2018-08-10T06:38:14.031Z,26.21
2018-08-10T06:39:13.710Z,26.27
2018-08-10T06:40:13.792Z,26.20
2018-08-10T06:41:13.774Z,26.24
2018-08-10T06:42:13.811Z,26.19
2018-08-10T06:43:13.894Z,26.28
2018-08-10T06:44:14.175Z,26.29
2018-08-10T06:45:13.922Z,26.28
2018-08-10T06:46:14.296Z,26.28
2018-08-10T06:47:13.973Z,26.29
2018-08-10T06:48:14.007Z,26.29
2018-08-10T06:49:14.082Z,26.28
2018-08-10T06:50:14.080Z,26.28
2018-08-10T06:51:14.149Z,26.32
2018-08-10T06:52:14.199Z,26.34
2018-08-10T06:53:14.176Z,26.34
2018-08-10T06:54:14.245Z,26.21
2018-08-10T06:55:14.256Z,26.35
2018-08-10T06:56:14.661Z,26.31
2018-08-10T06:57:14.296Z,26.24
2018-08-10T06:58:14.399Z,26.34
2018-08-10T06:59:14.427Z,26.31
2018-08-10T07:00:14.648Z,26.32
2018-08-10T07:01:14.430Z,26.35
2018-08-10T07:02:14.460Z,26.29
2018-08-10T07:03:14.793Z,26.35
2018-08-10T07:04:14.579Z,26.29
2018-08-10T07:05:14.616Z,26.38
2018-08-10T07:06:14.614Z,26.38
2018-08-10T07:07:14.626Z,26.32
2018-08-10T07:08:14.708Z,26.28
2018-08-10T07:09:14.701Z,26.38
2018-08-10T07:10:14.779Z,26.38
2018-08-10T07:11:14.760Z,26.38
2018-08-10T07:12:14.836Z,26.31
2018-08-10T07:13:15.023Z,26.31
2018-08-10T07:14:14.851Z,26.34
2018-08-10T07:15:14.889Z,26.35
2018-08-10T07:16:15.224Z,26.51
2018-08-10T07:17:14.952Z,26.39
2018-08-10T07:18:15.139Z,26.38
2018-08-10T07:19:15.031Z,26.29
2018-08-10T07:20:15.113Z,26.50
2018-08-10T07:21:15.087Z,26.46
2018-08-10T07:22:15.137Z,26.39
2018-08-10T07:23:15.206Z,26.41
2018-08-10T07:24:15.184Z,26.44
2018-08-10T07:25:15.224Z,26.44
2018-08-10T07:26:15.245Z,26.42
2018-08-10T07:27:15.447Z,26.47
2018-08-10T07:28:15.369Z,26.47
2018-08-10T07:29:15.697Z,26.41
2018-08-10T07:30:15.873Z,26.47
2018-08-10T07:31:15.413Z,26.47
2018-08-10T07:32:15.500Z,26.47
2018-08-10T07:33:15.508Z,26.44
2018-08-10T07:34:15.565Z,26.47
2018-08-10T07:35:15.843Z,26.46
2018-08-10T07:36:15.579Z,26.46
2018-08-10T07:37:15.618Z,26.53
2018-08-10T07:38:15.694Z,26.53
2018-08-10T07:39:15.681Z,26.59
2018-08-10T07:40:15.706Z,26.50
2018-08-10T07:41:16.047Z,26.49
2018-08-10T07:42:15.886Z,26.54
2018-08-10T07:43:15.856Z,26.57
2018-08-10T07:44:15.887Z,26.60
2018-08-10T07:45:15.876Z,26.53
2018-08-10T07:46:15.927Z,26.54
2018-08-10T07:47:15.959Z,26.60
2018-08-10T07:48:16.022Z,26.54
2018-08-10T07:49:16.002Z,26.56
2018-08-10T07:50:16.113Z,26.60
2018-08-10T07:51:16.221Z,26.60
2018-08-10T07:52:16.557Z,26.61
2018-08-10T07:53:16.135Z,26.61
2018-08-10T07:54:16.476Z,26.61
2018-08-10T07:55:16.209Z,26.71
2018-08-10T07:56:16.285Z,26.61
2018-08-10T07:57:16.331Z,26.66
2018-08-10T07:58:16.315Z,26.59
2018-08-10T07:59:16.360Z,26.69
2018-08-10T08:00:16.433Z,26.75
2018-08-10T08:01:16.465Z,26.71
2018-08-10T08:02:16.483Z,26.71
2018-08-10T08:03:16.533Z,26.73
2018-08-10T08:04:16.503Z,26.72
2018-08-10T08:05:16.536Z,26.69
2018-08-10T08:06:16.691Z,26.78
2018-08-10T08:07:16.919Z,26.86
2018-08-10T08:08:16.683Z,26.88
2018-08-10T08:09:16.668Z,26.79
2018-08-10T08:10:16.700Z,26.81
2018-08-10T08:11:16.732Z,26.83
2018-08-10T08:12:16.816Z,26.94
2018-08-10T08:13:16.850Z,26.91
2018-08-10T08:14:16.829Z,26.86
2018-08-10T08:15:16.880Z,26.88
2018-08-10T08:16:16.898Z,26.88
2018-08-10T08:17:16.941Z,26.94
2018-08-10T08:18:17.013Z,26.98
2018-08-10T08:19:16.997Z,27.01
2018-08-10T08:20:17.093Z,26.98
2018-08-10T08:21:17.067Z,26.94
2018-08-10T08:22:17.152Z,26.96
2018-08-10T08:23:17.134Z,27.03
2018-08-10T08:24:17.224Z,26.94
2018-08-10T08:25:17.249Z,27.02
2018-08-10T08:26:17.534Z,26.98
2018-08-10T08:27:17.273Z,26.94
2018-08-10T08:28:17.396Z,26.98
2018-08-10T08:29:17.383Z,27.02
2018-08-10T08:30:17.362Z,27.02
2018-08-10T08:31:17.398Z,27.03
2018-08-10T08:32:17.478Z,27.06
2018-08-10T08:33:17.466Z,27.01
2018-08-10T08:34:17.551Z,27.20
2018-08-10T08:35:17.535Z,27.03
2018-08-10T08:36:17.568Z,27.08
2018-08-10T08:37:17.598Z,27.05
2018-08-10T08:38:18.033Z,27.06
2018-08-10T08:39:17.674Z,27.08
2018-08-10T08:40:17.787Z,27.21
2018-08-10T08:41:17.729Z,27.09
2018-08-10T08:42:17.771Z,27.20
2018-08-10T08:43:17.851Z,27.23
2018-08-10T08:44:17.893Z,27.18
2018-08-10T08:45:17.897Z,27.18
2018-08-10T08:46:18.059Z,27.15
2018-08-10T08:47:17.937Z,27.18
2018-08-10T08:48:18.013Z,27.16
2018-08-10T08:49:18.045Z,27.18
2018-08-10T08:50:18.082Z,27.18
2018-08-10T08:51:18.367Z,27.24
2018-08-10T08:52:18.150Z,27.27
2018-08-10T08:53:18.137Z,27.28
2018-08-10T08:54:18.219Z,27.28
2018-08-10T08:55:18.204Z,27.28
2018-08-10T08:56:18.287Z,27.34
2018-08-10T08:57:18.340Z,27.31
2018-08-10T08:58:18.603Z,27.34
2018-08-10T08:59:18.407Z,27.34
2018-08-10T09:00:18.420Z,27.34
2018-08-10T09:01:18.408Z,27.38
2018-08-10T09:02:18.490Z,27.39
2018-08-10T09:03:18.466Z,27.40
2018-08-10T09:04:18.507Z,27.43
2018-08-10T09:05:18.833Z,27.48
2018-08-10T09:06:18.567Z,27.40
2018-08-10T09:07:18.719Z,27.40
2018-08-10T09:08:18.692Z,27.34
2018-08-10T09:09:18.683Z,27.40
2018-08-10T09:10:18.715Z,27.40
2018-08-10T09:11:19.041Z,27.39
2018-08-10T09:12:18.826Z,27.39
2018-08-10T09:13:18.851Z,27.38
2018-08-10T09:14:18.846Z,27.39
2018-08-10T09:15:18.869Z,27.38
2018-08-10T09:16:18.960Z,27.45
2018-08-10T09:17:19.064Z,27.39
2018-08-10T09:18:18.973Z,27.38
2018-08-10T09:19:19.013Z,27.48
2018-08-10T09:20:19.106Z,27.46
2018-08-10T09:21:19.076Z,27.43
2018-08-10T09:22:19.162Z,27.50
2018-08-10T09:23:19.155Z,27.46
2018-08-10T09:24:19.231Z,27.53
2018-08-10T09:25:19.215Z,27.49
2018-08-10T09:26:19.319Z,27.48
2018-08-10T09:27:19.332Z,27.55
2018-08-10T09:28:19.365Z,27.59
2018-08-10T09:29:20.019Z,27.63
2018-08-10T09:30:20.071Z,27.53
2018-08-10T09:32:19.718Z,27.61
2018-08-10T09:33:19.757Z,27.58
2018-08-10T09:34:19.561Z,27.63
2018-08-10T09:35:19.595Z,27.68
2018-08-10T09:36:19.633Z,27.59
2018-08-10T09:37:19.628Z,27.74
2018-08-10T09:38:19.647Z,27.65
2018-08-10T09:39:19.738Z,27.68
2018-08-10T09:40:19.768Z,27.69
2018-08-10T09:41:19.810Z,27.69
2018-08-10T09:42:20.089Z,27.72
2018-08-10T09:43:19.823Z,27.68
2018-08-10T09:44:19.911Z,27.74
2018-08-10T09:45:19.992Z,27.74
2018-08-10T09:46:19.917Z,27.66
2018-08-10T09:47:19.951Z,27.63
2018-08-10T09:48:20.037Z,27.69
2018-08-10T09:49:20.324Z,27.76
2018-08-10T09:50:20.118Z,27.62
2018-08-10T09:51:20.090Z,27.68
2018-08-10T09:52:20.178Z,27.69
2018-08-10T09:53:20.270Z,27.72
2018-08-10T09:54:20.195Z,27.71
2018-08-10T09:55:20.233Z,27.78
2018-08-10T09:56:20.580Z,27.72
2018-08-10T09:57:20.347Z,27.72
2018-08-10T09:58:20.332Z,27.65
2018-08-10T09:59:20.374Z,27.80
2018-08-10T10:00:20.453Z,27.78
2018-08-10T10:01:20.530Z,27.78
2018-08-10T10:02:20.813Z,27.78
2018-08-10T10:03:20.504Z,27.78
2018-08-10T10:04:20.594Z,27.78
2018-08-10T10:05:20.568Z,27.76
2018-08-10T10:06:20.607Z,27.72
2018-08-10T10:07:20.685Z,27.84
2018-08-10T10:08:20.730Z,27.84
2018-08-10T10:09:20.709Z,27.80
2018-08-10T10:10:20.743Z,27.81
2018-08-10T10:11:20.770Z,27.83
2018-08-10T10:12:20.819Z,27.87
2018-08-10T10:13:20.888Z,27.78
2018-08-10T10:14:21.180Z,27.81
2018-08-10T10:15:20.916Z,27.88
2018-08-10T10:16:20.999Z,27.87
2018-08-10T10:17:21.026Z,27.87
2018-08-10T10:18:21.011Z,27.86
2018-08-10T10:19:21.049Z,27.84
2018-08-10T10:20:21.083Z,27.86
2018-08-10T10:21:21.418Z,27.86
2018-08-10T10:22:21.195Z,27.84
2018-08-10T10:23:21.240Z,27.81
2018-08-10T10:24:21.220Z,27.87
2018-08-10T10:25:21.304Z,27.83
2018-08-10T10:26:21.343Z,27.78
2018-08-10T10:27:21.483Z,27.86
2018-08-10T10:28:21.664Z,27.78
2018-08-10T10:29:21.391Z,27.83
2018-08-10T10:30:21.427Z,27.87
2018-08-10T10:31:21.505Z,27.87
2018-08-10T10:32:21.540Z,27.81
2018-08-10T10:33:21.527Z,27.90
2018-08-10T10:34:21.632Z,27.90
2018-08-10T10:35:21.897Z,27.87
2018-08-10T10:36:21.688Z,27.87
2018-08-10T10:37:21.711Z,27.81
2018-08-10T10:38:21.699Z,27.86
2018-08-10T10:39:21.780Z,27.88
2018-08-10T10:40:21.773Z,27.86
2018-08-10T10:41:21.867Z,27.93
2018-08-10T10:42:21.882Z,27.91
2018-08-10T10:43:21.878Z,27.90
2018-08-10T10:44:21.959Z,27.96
2018-08-10T10:45:22.020Z,27.86
2018-08-10T10:46:22.040Z,27.84
2018-08-10T10:47:22.084Z,27.87
2018-08-10T10:48:22.397Z,27.86
2018-08-10T10:49:22.074Z,27.87
2018-08-10T10:50:22.120Z,27.95
2018-08-10T10:51:22.150Z,27.96
2018-08-10T10:52:22.179Z,27.87
2018-08-10T10:53:22.262Z,27.95
2018-08-10T10:54:22.258Z,27.86
2018-08-10T10:55:22.292Z,27.96
2018-08-10T10:56:22.398Z,27.95
2018-08-10T10:57:22.358Z,27.90
2018-08-10T10:58:22.437Z,28.02
2018-08-10T10:59:22.422Z,27.98
2018-08-10T11:00:22.455Z,27.99
2018-08-10T11:01:22.784Z,28.05
2018-08-10T11:02:22.518Z,27.98
2018-08-10T11:03:22.557Z,27.98
2018-08-10T11:04:22.643Z,27.98
2018-08-10T11:05:22.674Z,28.05
2018-08-10T11:06:22.756Z,28.01
2018-08-10T11:07:22.992Z,28.03
2018-08-10T11:08:22.780Z,28.01
2018-08-10T11:09:22.813Z,27.99
2018-08-10T11:10:22.795Z,28.02
2018-08-10T11:11:22.839Z,28.03
2018-08-10T11:12:22.919Z,28.05
2018-08-10T11:13:23.256Z,28.06
2018-08-10T11:14:22.934Z,28.09
2018-08-10T11:15:22.968Z,28.09
2018-08-10T11:16:23.073Z,28.13
2018-08-10T11:17:23.046Z,28.11
2018-08-10T11:18:23.132Z,28.13
2018-08-10T11:19:23.109Z,28.18
2018-08-10T11:20:23.191Z,28.20
2018-08-10T11:21:23.173Z,28.20
2018-08-10T11:22:23.208Z,28.17
2018-08-10T11:23:23.334Z,28.23
2018-08-10T11:24:23.329Z,28.24
2018-08-10T11:25:23.786Z,28.27
2018-08-10T11:26:23.348Z,28.18
2018-08-10T11:27:23.392Z,28.17
2018-08-10T11:28:23.472Z,28.17
2018-08-10T11:29:23.450Z,28.21
2018-08-10T11:30:23.623Z,28.20
2018-08-10T11:31:23.526Z,28.27
2018-08-10T11:32:23.865Z,28.25
2018-08-10T11:33:23.597Z,28.20
2018-08-10T11:34:23.687Z,28.24
2018-08-10T11:35:23.669Z,28.18
2018-08-10T11:36:23.697Z,28.20
2018-08-10T11:37:23.728Z,28.21
2018-08-10T11:38:23.770Z,28.21
2018-08-10T11:39:24.101Z,28.27
2018-08-10T11:40:23.885Z,28.20
2018-08-10T11:41:23.935Z,28.20
2018-08-10T11:42:23.906Z,28.20
2018-08-10T11:43:23.986Z,28.23
2018-08-10T11:44:23.971Z,28.23
2018-08-10T11:45:24.011Z,28.27
2018-08-10T11:46:24.344Z,28.21
2018-08-10T11:47:24.081Z,28.27
2018-08-10T11:48:24.160Z,28.24
2018-08-10T11:49:24.198Z,28.23
2018-08-10T11:50:24.203Z,28.24
2018-08-10T11:51:24.214Z,28.21
2018-08-10T11:52:24.363Z,28.27
2018-08-10T11:53:24.591Z,28.23
2018-08-10T11:54:24.408Z,28.20
2018-08-10T11:55:24.355Z,28.20
2018-08-10T11:56:24.399Z,28.23
2018-08-10T11:57:24.492Z,28.23
2018-08-10T11:58:24.462Z,28.24
2018-08-10T11:59:24.508Z,28.21
2018-08-10T12:00:24.834Z,28.21
2018-08-10T12:01:24.611Z,28.21
2018-08-10T12:02:24.606Z,28.20
2018-08-10T12:03:24.635Z,28.20
2018-08-10T12:04:24.726Z,28.23
2018-08-10T12:05:24.761Z,28.20
2018-08-10T12:06:24.744Z,28.20
2018-08-10T12:07:25.076Z,28.23
2018-08-10T12:08:24.853Z,28.24
2018-08-10T12:09:24.842Z,28.28
2018-08-10T12:10:24.928Z,28.23
2018-08-10T12:11:24.907Z,28.24
2018-08-10T12:12:25.062Z,28.25
2018-08-10T12:13:25.030Z,28.24
2018-08-10T12:14:25.027Z,28.25
2018-08-10T12:15:25.047Z,28.33
2018-08-10T12:16:25.087Z,28.28
2018-08-10T12:17:25.122Z,28.36
2018-08-10T12:18:25.205Z,28.30
2018-08-10T12:19:25.503Z,28.28
2018-08-10T12:20:25.222Z,28.28
2018-08-10T12:21:25.259Z,28.21
2018-08-10T12:22:25.297Z,28.20
2018-08-10T12:23:25.376Z,28.30
2018-08-10T12:24:25.433Z,28.18
2018-08-10T12:25:25.705Z,28.40
2018-08-10T12:26:25.430Z,28.35
2018-08-10T12:28:25.516Z,28.33
2018-08-10T12:29:25.593Z,28.36
2018-08-10T12:30:25.583Z,28.28
2018-08-10T12:31:25.662Z,28.20
2018-08-10T12:32:25.942Z,28.25
2018-08-10T12:33:25.728Z,28.23
2018-08-10T12:34:25.714Z,28.32
2018-08-10T12:35:25.748Z,28.20
2018-08-10T12:36:25.834Z,28.23
2018-08-10T12:37:25.817Z,28.28
2018-08-10T12:38:25.904Z,28.24
2018-08-10T12:39:26.187Z,28.32
2018-08-10T12:40:25.969Z,28.32
2018-08-10T12:41:25.963Z,28.33
2018-08-10T12:42:25.992Z,28.36
2018-08-10T12:43:26.088Z,28.32
2018-08-10T12:44:26.125Z,28.36
2018-08-10T12:45:26.095Z,28.30
2018-08-10T12:46:26.131Z,28.39
2018-08-10T12:47:26.164Z,28.32
2018-08-10T12:48:26.250Z,28.38
2018-08-10T12:49:26.280Z,28.28
2018-08-10T12:50:26.327Z,28.28
2018-08-10T12:51:26.312Z,28.36
2018-08-10T12:52:26.394Z,28.33
2018-08-10T12:53:26.374Z,28.32
2018-08-10T12:54:26.463Z,28.35
2018-08-10T12:55:26.443Z,28.32
2018-08-10T12:56:26.485Z,28.36
2018-08-10T12:57:26.519Z,28.28
2018-08-10T12:58:26.851Z,28.35